Time;durP1;ratioP1;P1;durP2;ratioP2;P2;SDS_P1;SDS_P2;PMS_P1;PMS_P2;Temp;Humidity;BMP_temperature;BMP_pressure;BME280_temperature;BME280_humidity;BME280_pressure;Samples;Min_cycle;Max_cycle;Signal;HPM_P1;HPM_P2
2022/09/17 00:01:42;;;;;;;9.73;6.07;;;;;;;;;;5024730;28;20518;-72
2022/09/17 00:04:08;;;;;;;9.53;6.00;;;;;;;;;;5042556;28;20495;-73
2022/09/17 00:06:34;;;;;;;9.65;5.90;;;;;;;;;;5048149;28;20415;-73
2022/09/17 00:08:59;;;;;;;15.00;6.20;;;;;;;;;;5051774;28;20037;-73
2022/09/17 00:11:26;;;;;;;7.37;5.13;;;;;;;;;;5047459;28;20177;-72
2022/09/17 00:13:52;;;;;;;8.63;5.63;;;;;;;;;;5045679;28;20040;-72
2022/09/17 00:16:22;;;;;;;10.88;6.40;;;;;;;;;;5048406;28;20026;-74
2022/09/17 00:18:48;;;;;;;9.10;5.85;;;;;;;;;;5043820;28;20045;-73
2022/09/17 00:21:17;;;;;;;16.33;6.55;;;;;;;;;;5028912;28;20036;-73
2022/09/17 00:23:42;;;;;;;12.15;6.75;;;;;;;;;;5046728;28;20110;-72
2022/09/17 00:26:08;;;;;;;13.25;7.35;;;;;;;;;;5046074;28;20079;-70
2022/09/17 00:28:33;;;;;;;14.20;7.65;;;;;;;;;;5048671;28;20036;-71
2022/09/17 00:30:58;;;;;;;11.43;7.50;;;;;;;;;;5044888;28;20430;-72
2022/09/17 00:33:23;;;;;;;12.67;8.00;;;;;;;;;;5047725;28;20387;-72
2022/09/17 00:35:59;;;;;;;12.57;6.93;;;;;;;;;;5050669;28;20576;-72
2022/09/17 00:38:24;;;;;;;9.90;6.72;;;;;;;;;;5042747;28;20455;-72
2022/09/17 00:40:49;;;;;;;8.82;6.38;;;;;;;;;;5034396;28;20020;-72
2022/09/17 00:43:31;;;;;;;14.60;6.73;;;;;;;;;;5048662;28;20029;-73
2022/09/17 00:45:57;;;;;;;10.98;6.53;;;;;;;;;;5049936;28;20104;-72
2022/09/17 00:48:22;;;;;;;13.13;6.95;;;;;;;;;;5029400;28;20417;-72
2022/09/17 00:50:47;;;;;;;9.20;6.78;;;;;;;;;;5046551;28;20107;-72
2022/09/17 00:53:14;;;;;;;11.77;6.45;;;;;;;;;;5053397;28;20033;-72
2022/09/17 00:55:41;;;;;;;10.50;6.50;;;;;;;;;;5045695;28;20041;-72
2022/09/17 00:58:08;;;;;;;8.57;6.40;;;;;;;;;;5046273;28;20037;-71
2022/09/17 01:00:33;;;;;;;8.32;6.03;;;;;;;;;;5031698;28;20060;-72
2022/09/17 01:02:58;;;;;;;9.15;6.20;;;;;;;;;;5030699;28;20117;-71
2022/09/17 01:05:29;;;;;;;10.00;5.27;;;;;;;;;;5040542;28;20481;-71
2022/09/17 01:08:07;;;;;;;5.88;4.25;;;;;;;14.43;nan;99466.06;5047641;28;20552;-72
2022/09/17 01:10:35;;;;;;;4.68;3.20;;;;;;;;;;5044878;28;20490;-72
2022/09/17 01:13:16;;;;;;;5.63;3.20;;;;;;;;;;5044326;28;20495;-73
2022/09/17 01:15:41;;;;;;;4.53;2.55;;;;;;;;;;5028826;28;20037;-72
2022/09/17 01:18:07;;;;;;;3.25;2.72;;;;;;;;;;5042454;28;20526;-72
2022/09/17 01:20:42;;;;;;;6.28;2.53;;;;;;;;;;5042393;28;20029;-72
2022/09/17 01:23:29;;;;;;;9.48;2.55;;;;;;;;;;5045610;28;20035;-73
2022/09/17 01:26:12;;;;;;;2.60;1.98;;;;;;;;;;5025242;28;20032;-73
2022/09/17 01:28:48;;;;;;;4.03;2.25;;;;;;;;;;5036739;28;20906;-73
2022/09/17 01:31:26;;;;;;;7.32;2.97;;;;;;;;;;5044851;28;20029;-72
2022/09/17 01:33:57;;;;;;;7.25;2.90;;;;;;;;;;5035701;28;20032;-72
2022/09/17 01:36:25;;;;;;;3.97;2.35;;;;;;;;;;5033166;28;20028;-72
2022/09/17 01:38:57;;;;;;;5.10;2.42;;;;;;;;;;5044530;28;20032;-72
2022/09/17 01:41:30;;;;;;;4.53;2.65;;;;;;;;;;5028540;28;20033;-72
2022/09/17 01:44:01;;;;;;;7.53;2.70;;;;;;;;;;5045146;28;20053;-73
2022/09/17 01:46:35;;;;;;;3.17;2.42;;;;;;;13.39;nan;99465.88;5030821;28;20461;-72
2022/09/17 01:49:03;;;;;;;6.05;2.72;;;;;;;;;;5046934;28;20559;-73
2022/09/17 01:51:34;;;;;;;7.68;2.88;;;;;;;;;;5038615;28;20075;-73
2022/09/17 01:54:26;;;;;;;10.52;2.83;;;;;;;;;;5047264;28;20071;-72
2022/09/17 01:57:00;;;;;;;7.38;2.83;;;;;;;;;;5050671;28;20057;-72
2022/09/17 01:59:32;;;;;;;4.70;2.90;;;;;;;;;;5042018;28;20037;-72
2022/09/17 02:02:01;;;;;;;6.93;2.80;;;;;;;;;;5051962;28;20031;-73
2022/09/17 02:04:40;;;;;;;5.20;3.08;;;;;;;;;;5026583;28;20023;-73
2022/09/17 02:07:08;;;;;;;7.28;2.88;;;;;;;;;;5044885;28;20036;-71
2022/09/17 02:09:39;;;;;;;8.52;3.75;;;;;;;;;;5030684;28;20036;-71
2022/09/17 02:12:07;;;;;;;7.30;3.42;;;;;;;;;;5030224;28;20037;-72
2022/09/17 02:14:35;;;;;;;8.45;3.30;;;;;;;;;;5029529;28;20026;-72
2022/09/17 02:17:04;;;;;;;9.18;3.50;;;;;;;;;;5049664;28;20024;-72
2022/09/17 02:19:32;;;;;;;6.50;3.80;;;;;;;;;;5045051;28;20041;-72
2022/09/17 02:22:02;;;;;;;6.05;3.95;;;;;;;;;;5044827;28;20025;-71
2022/09/17 02:24:34;;;;;;;5.63;3.83;;;;;;;;;;5040442;28;20399;-71
2022/09/17 02:27:02;;;;;;;6.22;4.57;;;;;;;;;;5040505;28;20113;-71
2022/09/17 02:29:32;;;;;;;9.52;5.55;;;;;;;;;;5029221;28;20029;-71
2022/09/17 02:31:58;;;;;;;9.63;5.40;;;;;;;;;;5042400;28;20921;-71
2022/09/17 02:34:24;;;;;;;10.00;5.85;;;;;;;;;;5029003;28;20114;-71
2022/09/17 02:36:50;;;;;;;12.35;6.60;;;;;;;;;;5026340;28;20116;-71
2022/09/17 02:39:16;;;;;;;12.05;6.80;;;;;;;;;;5042939;28;20108;-70
2022/09/17 02:41:50;;;;;;;11.18;5.97;;;;;;;;;;5028068;28;20545;-71
2022/09/17 02:44:21;;;;;;;10.20;5.90;;;;;;;;;;5049158;28;20059;-70
2022/09/17 02:46:56;;;;;;;11.43;6.25;;;;;;;;;;5040818;28;20044;-71
2022/09/17 02:49:24;;;;;;;9.60;5.68;;;;;;;;;;5046151;28;20028;-72
2022/09/17 02:51:58;;;;;;;11.43;5.55;;;;;;;;;;5044723;28;20063;-72
2022/09/17 02:54:34;;;;;;;11.43;5.85;;;;;;;;;;5045531;28;20033;-71
2022/09/17 02:57:18;;;;;;;9.95;5.93;;;;;;;;;;5042108;28;20037;-72
2022/09/17 02:59:46;;;;;;;10.55;6.25;;;;;;;;;;5039292;28;20490;-73
2022/09/17 03:02:32;;;;;;;11.70;6.30;;;;;;;;;;5048762;28;20068;-71
2022/09/17 03:04:58;;;;;;;11.68;6.57;;;;;;;;;;5034227;28;20041;-72
2022/09/17 03:07:23;;;;;;;8.57;6.40;;;;;;;;;;5032537;28;20094;-71
2022/09/17 03:09:49;;;;;;;12.27;6.50;;;;;;;;;;5043727;28;20029;-71
2022/09/17 03:12:14;;;;;;;13.68;6.45;;;;;;;;;;5028792;28;20048;-71
2022/09/17 03:14:39;;;;;;;16.55;6.90;;;;;;;;;;5043478;28;20049;-72
2022/09/17 03:17:05;;;;;;;12.77;7.00;;;;;;;;;;5026793;28;20032;-71
2022/09/17 03:19:30;;;;;;;14.50;7.40;;;;;;;;;;5044115;28;20725;-72
2022/09/17 03:21:55;;;;;;;12.27;7.20;;;;;;;;;;5039989;28;20044;-72
2022/09/17 03:24:20;;;;;;;10.17;6.50;;;;;;;;;;5045017;28;20083;-72
2022/09/17 03:26:49;;;;;;;11.95;6.90;;;;;;;;;;5023089;28;20779;-73
2022/09/17 03:29:15;;;;;;;12.50;7.10;;;;;;;;;;5029770;28;20036;-72
2022/09/17 03:31:40;;;;;;;12.43;6.80;;;;;;;;;;5045359;28;20059;-72
2022/09/17 03:34:06;;;;;;;9.93;6.72;;;;;;;;;;5043842;28;20026;-71
2022/09/17 03:36:31;;;;;;;11.48;6.95;;;;;;;;;;5043936;28;20056;-72
2022/09/17 03:38:57;;;;;;;10.23;6.20;;;;;;;;;;5041562;28;20042;-72
2022/09/17 03:41:22;;;;;;;10.75;6.32;;;;;;;;;;5029114;28;20037;-73
2022/09/17 03:43:47;;;;;;;9.75;6.70;;;;;;;;;;5045564;28;20710;-72
2022/09/17 03:46:13;;;;;;;11.03;6.67;;;;;;;;;;5046401;28;20025;-72
2022/09/17 03:48:38;;;;;;;13.65;7.20;;;;;;;;;;5048202;28;20583;-72
2022/09/17 03:51:04;;;;;;;10.30;7.10;;;;;;;;;;5054196;28;20577;-73
2022/09/17 03:53:29;;;;;;;12.60;7.30;;;;;;;;;;5028585;28;20037;-72
2022/09/17 03:55:56;;;;;;;9.45;6.57;;;;;;;;;;5051071;28;20106;-71
2022/09/17 03:58:22;;;;;;;13.73;8.30;;;;;;;;;;5048398;28;20437;-72
2022/09/17 04:00:52;;;;;;;12.60;7.95;;;;;;;;;;5042442;28;20016;-72
2022/09/17 04:03:17;;;;;;;14.52;7.15;;;;;;;;;;5061865;28;20029;-71
2022/09/17 04:05:42;;;;;;;12.97;7.17;;;;;;;;;;5062135;28;20673;-72
2022/09/17 04:08:07;;;;;;;11.10;6.77;;;;;;;;;;5040570;28;20299;-72
2022/09/17 04:10:32;;;;;;;11.63;6.67;;;;;;;;;;5054757;28;20028;-72
2022/09/17 04:12:58;;;;;;;10.53;7.07;;;;;;;;;;5062617;28;20044;-72
2022/09/17 04:15:23;;;;;;;19.50;7.47;;;;;;;;;;5068663;28;20639;-72
2022/09/17 04:17:48;;;;;;;14.80;7.77;;;;;;;;;;5063864;28;20025;-72
2022/09/17 04:20:14;;;;;;;11.73;6.87;;;;;;;;;;5061466;28;20052;-72
2022/09/17 04:22:39;;;;;;;14.07;7.47;;;;;;;;;;5061589;28;20056;-72
2022/09/17 04:25:04;;;;;;;12.50;8.10;;;;;;;;;;5055980;28;20017;-72
2022/09/17 04:27:29;;;;;;;11.45;7.93;;;;;;;;;;5034978;28;20021;-72
2022/09/17 04:29:55;;;;;;;10.97;7.73;;;;;;;;;;5045065;28;20033;-72
2022/09/17 04:32:20;;;;;;;11.57;7.70;;;;;;;;;;5041903;28;20191;-73
2022/09/17 04:34:45;;;;;;;15.68;8.43;;;;;;;;;;5051732;28;20036;-70
2022/09/17 04:37:10;;;;;;;15.07;8.07;;;;;;;;;;5035560;28;20059;-70
2022/09/17 04:39:36;;;;;;;13.67;8.60;;;;;;;;;;5046061;28;20297;-69
2022/09/17 04:42:02;;;;;;;14.85;7.80;;;;;;;;;;5051196;28;20408;-69
2022/09/17 04:44:27;;;;;;;16.98;8.48;;;;;;;;;;5046058;28;20036;-70
2022/09/17 04:46:52;;;;;;;15.18;8.25;;;;;;;;;;5033668;28;20024;-71
2022/09/17 04:49:18;;;;;;;17.50;9.20;;;;;;;;;;5052509;28;20087;-72
2022/09/17 04:51:43;;;;;;;16.60;9.63;;;;;;;;;;5030935;28;20032;-72
2022/09/17 04:54:08;;;;;;;20.07;10.63;;;;;;;13.20;nan;99527.19;5045057;28;20115;-71
2022/09/17 04:56:33;;;;;;;15.75;9.52;;;;;;;;;;5048227;28;20061;-72
2022/09/17 04:58:59;;;;;;;18.07;10.43;;;;;;;;;;5042679;28;20025;-72
2022/09/17 05:01:25;;;;;;;19.35;10.52;;;;;;;;;;5051020;28;20344;-72
2022/09/17 05:03:50;;;;;;;21.75;10.73;;;;;;;;;;5047989;28;20032;-73
2022/09/17 05:06:15;;;;;;;22.30;11.73;;;;;;;;;;5049344;28;20471;-72
2022/09/17 05:08:41;;;;;;;19.83;11.03;;;;;;;;;;5045269;28;20471;-71
2022/09/17 05:11:06;;;;;;;18.17;11.03;;;;;;;;;;5046866;28;20308;-74
2022/09/17 05:13:31;;;;;;;19.93;11.80;;;;;;;;;;5046319;28;20084;-72
2022/09/17 05:15:56;;;;;;;19.85;11.38;;;;;;;;;;5032830;28;20662;-72
2022/09/17 05:18:22;;;;;;;20.17;11.40;;;;;;;;;;5047267;28;20041;-73
2022/09/17 05:20:48;;;;;;;20.98;12.25;;;;;;;;;;5045409;28;20285;-71
2022/09/17 05:23:13;;;;;;;20.60;11.83;;;;;;;;;;5050647;28;21346;-72
2022/09/17 05:25:38;;;;;;;22.23;12.20;;;;;;;;;;5044367;28;20029;-72
2022/09/17 05:28:03;;;;;;;27.67;13.93;;;;;;;;;;5029958;28;20290;-71
2022/09/17 05:30:29;;;;;;;20.27;12.07;;;;;;;;;;5047489;28;20370;-72
2022/09/17 05:33:01;;;;;;;30.25;11.88;;;;;;;;;;5045317;28;20109;-72
2022/09/17 05:35:27;;;;;;;19.98;11.30;;;;;;;;;;5042758;28;20509;-73
2022/09/17 05:37:55;;;;;;;18.30;10.65;;;;;;;;;;5034550;28;20033;-72
2022/09/17 05:40:20;;;;;;;17.30;10.77;;;;;;;;;;5044483;28;20100;-71
2022/09/17 05:42:46;;;;;;;21.65;11.32;;;;;;;;;;5045457;28;20155;-73
2022/09/17 05:45:11;;;;;;;18.15;10.95;;;;;;;;;;5043606;28;20360;-72
2022/09/17 05:47:36;;;;;;;17.50;10.60;;;;;;;;;;5047227;28;20077;-72
2022/09/17 05:50:02;;;;;;;16.57;10.60;;;;;;;;;;5048635;28;20031;-72
2022/09/17 05:52:27;;;;;;;16.70;10.35;;;;;;;;;;5050646;28;20313;-72
2022/09/17 05:54:53;;;;;;;17.63;10.05;;;;;;;;;;5044385;28;20471;-71
2022/09/17 05:57:19;;;;;;;19.87;10.00;;;;;;;;;;5047762;28;20105;-72
2022/09/17 05:59:44;;;;;;;15.65;9.88;;;;;;;;;;5045325;28;20073;-72
2022/09/17 06:02:12;;;;;;;13.82;9.27;;;;;;;;;;5030006;28;20116;-72
2022/09/17 06:04:37;;;;;;;18.70;9.10;;;;;;;;;;5045935;28;20020;-73
2022/09/17 06:07:04;;;;;;;12.10;9.03;;;;;;;;;;5048217;28;20482;-72
2022/09/17 06:09:29;;;;;;;13.38;9.07;;;;;;;;;;5028619;28;20024;-72
2022/09/17 06:11:54;;;;;;;12.50;8.60;;;;;;;;;;5046711;28;20035;-71
2022/09/17 06:14:19;;;;;;;15.50;8.47;;;;;;;;;;5047122;28;20032;-74
2022/09/17 06:16:45;;;;;;;14.48;9.40;;;;;;;;;;5023363;28;20304;-75
2022/09/17 06:19:10;;;;;;;16.33;9.27;;;;;;;;;;5031903;28;20420;-74
2022/09/17 06:21:35;;;;;;;14.93;8.87;;;;;;;;;;5047564;28;20107;-73
2022/09/17 06:24:00;;;;;;;13.17;7.87;;;;;;;;;;5030029;28;20025;-74
2022/09/17 06:26:26;;;;;;;9.98;7.55;;;;;;;;;;5031156;28;20013;-72
2022/09/17 06:28:51;;;;;;;13.90;7.83;;;;;;;;;;5046841;28;20037;-72
2022/09/17 06:31:16;;;;;;;12.57;7.40;;;;;;;;;;5028112;28;20043;-74
2022/09/17 06:33:41;;;;;;;13.45;8.43;;;;;;;;;;5026045;28;20127;-71
2022/09/17 06:36:09;;;;;;;11.27;7.50;;;;;;;;;;5048604;28;20064;-72
2022/09/17 06:38:35;;;;;;;12.98;7.65;;;;;;;;;;5047849;28;20025;-71
2022/09/17 06:41:01;;;;;;;11.43;7.18;;;;;;;;;;5046888;28;20037;-73
2022/09/17 06:43:26;;;;;;;10.90;7.25;;;;;;;;;;5043140;28;20079;-75
2022/09/17 06:45:52;;;;;;;10.87;7.47;;;;;;;;;;5041852;28;20039;-74
2022/09/17 06:48:17;;;;;;;10.73;7.10;;;;;;;;;;5043877;28;20278;-74
2022/09/17 06:50:42;;;;;;;12.47;6.80;;;;;;;;;;5040657;28;20478;-72
2022/09/17 06:53:08;;;;;;;9.97;6.40;;;;;;;;;;5042958;28;20025;-73
2022/09/17 06:55:33;;;;;;;9.55;6.13;;;;;;;;;;5040201;28;20032;-74
2022/09/17 06:57:59;;;;;;;10.90;6.13;;;;;;;;;;5044665;28;20090;-74
2022/09/17 07:00:25;;;;;;;8.63;6.13;;;;;;;;;;5046179;28;20029;-73
2022/09/17 07:02:57;;;;;;;15.88;5.72;;;;;;;;;;5047116;28;20095;-71
2022/09/17 07:05:23;;;;;;;10.77;5.80;;;;;;;;;;5047167;28;20047;-72
2022/09/17 07:07:48;;;;;;;7.38;5.72;;;;;;;;;;5030007;28;20032;-71
2022/09/17 07:10:14;;;;;;;10.30;6.07;;;;;;;;;;5044433;28;20035;-71
2022/09/17 07:12:40;;;;;;;11.10;5.60;;;;;;;;;;5045461;28;20028;-71
2022/09/17 07:15:06;;;;;;;6.95;5.10;;;;;;;;;;5031329;28;20286;-71
2022/09/17 07:17:31;;;;;;;9.48;5.60;;;;;;;;;;5042794;28;20041;-70
2022/09/17 07:19:56;;;;;;;7.97;5.00;;;;;;;;;;5023609;28;20049;-71
2022/09/17 07:22:23;;;;;;;9.83;6.07;;;;;;;14.14;nan;99486.34;5023406;28;20285;-71
2022/09/17 07:24:48;;;;;;;11.07;5.97;;;;;;;;;;5026583;28;20275;-71
2022/09/17 07:27:14;;;;;;;7.60;5.10;;;;;;;;;;5026334;28;20048;-73
2022/09/17 07:29:40;;;;;;;8.30;5.17;;;;;;;;;;5023319;28;20029;-73
2022/09/17 07:32:06;;;;;;;6.75;5.20;;;;;;;;;;5024768;28;20711;-72
2022/09/17 07:34:31;;;;;;;7.57;5.25;;;;;;;;;;5023457;28;20037;-72
2022/09/17 07:36:56;;;;;;;9.77;5.13;;;;;;;;;;5024396;28;20037;-73
2022/09/17 07:39:22;;;;;;;9.17;5.30;;;;;;;;;;5027025;28;20026;-73
2022/09/17 07:41:47;;;;;;;8.67;5.23;;;;;;;;;;5022524;28;20033;-73
2022/09/17 07:44:12;;;;;;;8.35;5.38;;;;;;;;;;5026060;28;20688;-73
2022/09/17 07:46:37;;;;;;;8.50;5.50;;;;;;;;;;5023435;28;20025;-74
2022/09/17 07:49:03;;;;;;;9.20;6.10;;;;;;;;;;5023752;28;20305;-73
2022/09/17 07:51:28;;;;;;;8.70;5.53;;;;;;;;;;5025271;28;20411;-73
2022/09/17 07:53:54;;;;;;;8.37;5.83;;;;;;;;;;5025042;28;20325;-73
2022/09/17 07:56:20;;;;;;;9.88;6.47;;;;;;;;;;5026449;28;20033;-73
2022/09/17 07:58:45;;;;;;;11.43;6.90;;;;;;;;;;5023995;28;20429;-73
2022/09/17 08:01:11;;;;;;;10.57;7.20;;;;;;;;;;5024249;28;20498;-71
2022/09/17 08:03:38;;;;;;;10.68;6.90;;;;;;;;;;5020609;28;20026;-71
2022/09/17 08:06:04;;;;;;;12.25;6.85;;;;;;;;;;5024364;28;20095;-70
2022/09/17 08:08:31;;;;;;;9.27;6.63;;;;;;;;;;5023053;28;20025;-71
2022/09/17 08:11:16;;;;;;;13.43;6.53;;;;;;;;;;5018093;28;20382;-71
2022/09/17 08:13:42;;;;;;;14.15;6.60;;;;;;;;;;5023646;28;20160;-71
2022/09/17 08:16:09;;;;;;;13.98;6.20;;;;;;;;;;5023489;28;20484;-71
2022/09/17 08:18:34;;;;;;;7.22;5.43;;;;;;;;;;5028500;28;20052;-72
2022/09/17 08:21:00;;;;;;;7.55;5.30;;;;;;;;;;5028639;28;20028;-71
2022/09/17 08:23:26;;;;;;;6.55;4.80;;;;;;;;;;5042434;28;20044;-71
2022/09/17 08:25:53;;;;;;;6.22;4.15;;;;;;;;;;5042603;28;20036;-72
2022/09/17 08:28:18;;;;;;;10.02;3.67;;;;;;;;;;5044005;28;20029;-72
2022/09/17 08:30:45;;;;;;;5.47;3.10;;;;;;;;;;5044980;28;20035;-72
2022/09/17 08:33:10;;;;;;;6.28;3.20;;;;;;;;;;5046617;28;20648;-72
2022/09/17 08:35:35;;;;;;;3.70;2.90;;;;;;;;;;5047005;28;20017;-72
2022/09/17 08:38:00;;;;;;;5.20;3.67;;;;;;;;;;5044344;28;20482;-74
2022/09/17 08:40:27;;;;;;;7.30;3.07;;;;;;;;;;5029345;28;20070;-73
2022/09/17 08:42:59;;;;;;;4.85;3.42;;;;;;;;;;5048866;28;20032;-74
2022/09/17 08:45:25;;;;;;;9.35;3.90;;;;;;;;;;5044309;28;20025;-73
2022/09/17 08:47:50;;;;;;;6.65;4.28;;;;;;;;;;5048452;28;20039;-73
2022/09/17 08:50:19;;;;;;;6.43;4.00;;;;;;;;;;5048378;28;20032;-73
2022/09/17 08:52:45;;;;;;;6.07;3.80;;;;;;;;;;5029565;28;20032;-73
2022/09/17 08:55:17;;;;;;;6.93;3.72;;;;;;;;;;5046480;28;20055;-73
2022/09/17 08:58:00;;;;;;;5.63;3.35;;;;;;;;;;5031162;28;20442;-73
2022/09/17 09:00:28;;;;;;;5.55;3.83;;;;;;;;;;5048861;28;20112;-73
2022/09/17 09:03:12;;;;;;;5.28;3.70;;;;;;;;;;5030969;28;20057;-72
2022/09/17 09:05:37;;;;;;;5.47;3.40;;;;;;;;;;5046309;28;20025;-71
2022/09/17 09:08:12;;;;;;;6.47;3.87;;;;;;;;;;5053340;28;20033;-72
2022/09/17 09:10:56;;;;;;;6.20;3.38;;;;;;;;;;5050336;28;20450;-73
2022/09/17 09:13:24;;;;;;;6.43;3.45;;;;;;;;;;5033462;28;20035;-72
2022/09/17 09:15:55;;;;;;;8.18;3.25;;;;;;;;;;5035581;28;20070;-72
2022/09/17 09:18:22;;;;;;;6.97;3.78;;;;;;;;;;5051955;28;20049;-74
2022/09/17 09:20:47;;;;;;;6.03;3.50;;;;;;;;;;5038679;28;20040;-72
2022/09/17 09:23:20;;;;;;;4.50;3.47;;;;;;;;;;5032843;28;20025;-73
2022/09/17 09:25:52;;;;;;;7.43;3.15;;;;;;;;;;5048156;28;20277;-74
2022/09/17 09:28:36;;;;;;;4.82;3.47;;;;;;;;;;5047638;28;20035;-71
2022/09/17 09:31:17;;;;;;;7.32;3.58;;;;;;;;;;5068700;28;20013;-70
2022/09/17 09:33:43;;;;;;;5.38;3.70;;;;;;;;;;5054065;28;20017;-73
2022/09/17 09:36:13;;;;;;;6.90;3.67;;;;;;;;;;5066140;28;20029;-71
2022/09/17 09:38:41;;;;;;;4.78;3.15;;;;;;;;;;5055542;28;20040;-72
2022/09/17 09:41:08;;;;;;;5.22;3.22;;;;;;;;;;5066567;28;20021;-73
2022/09/17 09:43:52;;;;;;;7.35;3.53;;;;;;;16.27;nan;99516.03;5050854;28;20043;-72
2022/09/17 09:46:23;;;;;;;9.65;4.20;;;;;;;;;;5068138;28;20029;-73
2022/09/17 09:48:59;;;;;;;6.32;3.78;;;;;;;;;;5050565;28;20100;-73
2022/09/17 09:51:35;;;;;;;5.70;3.80;;;;;;;;;;5034450;28;20159;-72
2022/09/17 09:54:08;;;;;;;4.22;3.30;;;;;;;;;;5028081;28;20029;-71
2022/09/17 09:56:43;;;;;;;7.15;3.55;;;;;;;;;;5029136;28;20030;-71
2022/09/17 09:59:10;;;;;;;8.77;3.50;;;;;;;;;;5041020;28;20025;-71
2022/09/17 10:01:38;;;;;;;5.22;3.85;;;;;;;;;;5043103;28;20020;-72
2022/09/17 10:04:13;;;;;;;8.23;4.88;;;;;;;;;;5034510;28;20060;-73
2022/09/17 10:06:39;;;;;;;5.45;3.47;;;;;;;;;;5028030;28;20021;-73
2022/09/17 10:09:04;;;;;;;6.80;3.20;;;;;;;;;;5052147;28;20028;-73
2022/09/17 10:11:33;;;;;;;4.97;2.97;;;;;;;;;;5042186;28;20028;-73
2022/09/17 10:14:14;;;;;;;6.25;3.40;;;;;;;;;;5030077;28;20070;-74
2022/09/17 10:16:39;;;;;;;4.45;3.03;;;;;;;;;;5042291;28;20678;-73
2022/09/17 10:19:04;;;;;;;5.03;3.50;;;;;;;;;;5043293;28;20124;-73
2022/09/17 10:21:30;;;;;;;5.33;3.57;;;;;;;;;;5032976;28;20032;-73
2022/09/17 10:23:55;;;;;;;5.27;3.33;;;;;;;;;;5048468;28;20329;-73
2022/09/17 10:26:35;;;;;;;7.63;3.13;;;;;;;;;;5022322;28;20784;-72
2022/09/17 10:29:11;;;;;;;4.38;3.00;;;;;;;16.21;nan;99520.63;5046137;28;20037;-73
2022/09/17 10:31:49;;;;;;;5.35;3.15;;;;;;;;;;5029397;28;20386;-72
2022/09/17 10:34:24;;;;;;;5.67;3.53;;;;;;;;;;5040065;28;20021;-74
2022/09/17 10:36:50;;;;;;;6.22;3.53;;;;;;;;;;5031411;28;20624;-74
2022/09/17 10:39:26;;;;;;;6.05;3.70;;;;;;;;;;5024497;28;20139;-71
2022/09/17 10:42:02;;;;;;;5.75;3.70;;;;;;;;;;5044089;28;20064;-71
2022/09/17 10:44:34;;;;;;;6.63;3.65;;;;;;;;;;5036690;28;20024;-70
2022/09/17 10:47:02;;;;;;;5.55;3.70;;;;;;;;;;5046894;28;20057;-70
2022/09/17 10:49:36;;;;;;;6.60;4.82;;;;;;;;;;5047183;28;20033;-70
2022/09/17 10:52:05;;;;;;;11.45;5.35;;;;;;;;;;5038170;28;20029;-65
2022/09/17 10:54:43;;;;;;;7.97;4.95;;;;;;;;;;5023238;28;20502;-72
2022/09/17 10:57:12;;;;;;;6.07;4.20;;;;;;;;;;5032396;28;20036;-72
2022/09/17 10:59:46;;;;;;;6.85;4.35;;;;;;;;;;5042321;28;20081;-72
2022/09/17 11:02:30;;;;;;;6.75;4.07;;;;;;;;;;5031416;28;20544;-72
2022/09/17 11:05:26;;;;;;;7.82;5.22;;;;;;;15.79;nan;99519.47;5048855;28;20044;-72
2022/09/17 11:08:03;;;;;;;8.13;4.10;;;;;;;;;;5043096;28;20017;-72
2022/09/17 11:10:33;;;;;;;10.35;5.35;;;;;;;;;;5049758;28;20029;-72
2022/09/17 11:13:04;;;;;;;8.43;4.68;;;;;;;;;;5047642;28;20036;-73
2022/09/17 11:15:42;;;;;;;6.35;4.82;;;;;;;;;;5041504;28;20087;-72
2022/09/17 11:18:13;;;;;;;6.97;4.40;;;;;;;;;;5044564;28;20438;-70
2022/09/17 11:20:50;;;;;;;7.10;4.78;;;;;;;;;;5044710;28;20033;-71
2022/09/17 11:23:34;;;;;;;9.07;5.03;;;;;;;;;;5045060;28;20036;-70
2022/09/17 11:26:03;;;;;;;7.15;4.70;;;;;;;;;;5041502;28;20039;-72
2022/09/17 11:28:38;;;;;;;5.78;4.43;;;;;;;;;;5043070;28;20021;-72
2022/09/17 11:31:06;;;;;;;7.00;4.75;;;;;;;;;;5044829;28;20032;-71
2022/09/17 11:33:49;;;;;;;5.35;4.03;;;;;;;;;;5042935;28;20982;-72
2022/09/17 11:36:22;;;;;;;8.05;3.80;;;;;;;15.40;nan;99453.22;5029944;28;20033;-72
2022/09/17 11:38:48;;;;;;;5.57;4.18;;;;;;;;;;5045051;28;20040;-72
2022/09/17 11:41:19;;;;;;;4.22;3.83;;;;;;;;;;5048731;28;20024;-74
2022/09/17 11:44:03;;;;;;;11.05;5.32;;;;;;;;;;5027288;28;20098;-74
2022/09/17 11:46:32;;;;;;;9.73;5.00;;;;;;;;;;5043855;28;20447;-73
2022/09/17 11:49:01;;;;;;;6.10;4.45;;;;;;;;;;5046380;28;20495;-73
2022/09/17 11:51:27;;;;;;;;;;;;;;;;;;5031665;28;20036;-74
2022/09/17 11:53:56;;;;;;;5.93;4.15;;;;;;;;;;5046155;28;19912;-74
2022/09/17 11:56:41;;;;;;;5.05;4.28;;;;;;;;;;5044300;28;20029;-74
2022/09/17 11:59:24;;;;;;;10.05;4.07;;;;;;;;;;5048091;28;20034;-75
2022/09/17 12:01:50;;;;;;;4.55;3.63;;;;;;;;;;5032058;28;20031;-73
2022/09/17 12:04:34;;;;;;;4.70;3.55;;;;;;;;;;5034549;28;20025;-73
2022/09/17 12:07:22;;;;;;;4.85;3.63;;;;;;;;;;5050124;28;20026;-71
2022/09/17 12:09:50;;;;;;;6.75;3.85;;;;;;;;;;4991138;28;20035;-72
2022/09/17 12:12:22;;;;;;;4.82;3.63;;;;;;;;;;4991531;28;20042;-71
2022/09/17 12:14:53;;;;;;;7.93;3.38;;;;;;;;;;4992692;28;20550;-74
2022/09/17 12:17:25;;;;;;;4.45;3.60;;;;;;;;;;4993314;28;20026;-74
2022/09/17 12:19:57;;;;;;;4.25;3.53;;;;;;;;;;4991835;28;20112;-73
2022/09/17 12:22:25;;;;;;;5.97;3.85;;;;;;;;;;4991084;28;20037;-74
2022/09/17 12:24:51;;;;;;;6.82;3.20;;;;;;;;;;4975507;28;20033;-71
2022/09/17 12:27:26;;;;;;;6.82;3.58;;;;;;;15.37;nan;99375.00;4991779;28;20090;-74
2022/09/17 12:30:04;;;;;;;6.18;4.50;;;;;;;;;;4990438;28;20632;-74
2022/09/17 12:32:30;;;;;;;7.78;3.95;;;;;;;;;;4991779;28;20049;-74
2022/09/17 12:35:13;;;;;;;5.57;3.70;;;;;;;;;;4991878;28;20125;-74
2022/09/17 12:37:45;;;;;;;5.93;4.22;;;;;;;;;;4989808;28;20038;-72
2022/09/17 12:40:16;;;;;;;5.75;3.80;;;;;;;;;;4974982;28;20037;-72
2022/09/17 12:42:44;;;;;;;7.50;3.83;;;;;;;;;;4977670;28;20381;-74
2022/09/17 12:45:16;;;;;;;4.85;3.55;;;;;;;;;;4989111;28;20022;-75
2022/09/17 12:47:41;;;;;;;7.50;3.65;;;;;;;;;;5020271;28;20080;-71
2022/09/17 12:50:15;;;;;;;8.13;5.57;;;;;;;;;;5028662;28;20414;-74
2022/09/17 12:52:53;;;;;;;6.65;5.15;;;;;;;;;;5031619;28;20029;-73
2022/09/17 12:55:34;;;;;;;16.50;7.22;;;;;;;;;;5021398;28;20022;-74
2022/09/17 12:58:00;;;;;;;7.50;4.78;;;;;;;;;;5030223;28;20030;-74
2022/09/17 13:00:25;;;;;;;9.27;4.17;;;;;;;;;;5028780;28;20033;-73
2022/09/17 13:03:10;;;;;;;6.53;4.35;;;;;;;;;;5027726;28;20027;-73
2022/09/17 13:05:44;;;;;;;7.30;4.15;;;;;;;;;;5022707;28;20389;-74
2022/09/17 13:08:18;;;;;;;8.10;4.22;;;;;;;;;;5024970;28;20026;-74
2022/09/17 13:10:43;;;;;;;8.27;4.30;;;;;;;;;;5024179;28;20036;-75
2022/09/17 13:13:27;;;;;;;6.17;3.67;;;;;;;;;;5028543;28;20033;-75
2022/09/17 13:15:52;;;;;;;5.32;3.40;;;;;;;;;;5024914;28;20120;-73
2022/09/17 13:18:33;;;;;;;5.73;3.40;;;;;;;;;;5032112;28;20100;-75
2022/09/17 13:21:01;;;;;;;6.25;3.38;;;;;;;;;;5031744;28;20087;-74
2022/09/17 13:23:31;;;;;;;8.55;5.18;;;;;;;;;;5033733;28;20033;-74
2022/09/17 13:26:04;;;;;;;12.25;7.00;;;;;;;;;;5029105;28;20021;-73
2022/09/17 13:28:56;;;;;;;6.40;4.40;;;;;;;;;;5026766;28;20540;-77
2022/09/17 13:31:43;;;;;;;5.55;2.92;;;;;;;;;;5045747;28;20045;-72
2022/09/17 13:34:17;;;;;;;4.55;2.03;;;;;;;;;;5045886;28;20025;-76
2022/09/17 13:36:45;;;;;;;3.97;2.10;;;;;;;;;;5048104;28;20021;-76
2022/09/17 13:39:31;;;;;;;4.00;2.25;;;;;;;;;;5024121;28;20033;-75
2022/09/17 13:42:03;;;;;;;6.68;3.80;;;;;;;;;;5032598;28;20035;-75
2022/09/17 13:44:28;;;;;;;5.35;2.72;;;;;;;;;;5039142;28;20025;-74
2022/09/17 13:47:06;;;;;;;4.13;3.00;;;;;;;;;;5044479;28;20021;-75
2022/09/17 13:49:32;;;;;;;4.82;3.20;;;;;;;;;;5049802;28;20029;-75
2022/09/17 13:51:57;;;;;;;5.37;3.80;;;;;;;;;;5046356;28;20036;-74
2022/09/17 13:54:34;;;;;;;4.80;3.47;;;;;;;;;;5044723;28;20398;-76
2022/09/17 13:57:09;;;;;;;7.68;4.35;;;;;;;;;;5045203;28;20479;-75
2022/09/17 13:59:36;;;;;;;4.55;3.60;;;;;;;;;;5049752;28;20017;-75
2022/09/17 14:02:30;;;;;;;7.20;3.50;;;;;;;;;;5049829;28;20051;-76
2022/09/17 14:05:16;;;;;;;5.20;3.45;;;;;;;;;;5015218;28;20037;-76
2022/09/17 14:07:46;;;;;;;4.75;3.47;;;;;;;;;;5043059;28;20387;-76
2022/09/17 14:10:14;;;;;;;5.47;3.47;;;;;;;;;;5040871;28;20029;-76
2022/09/17 14:12:40;;;;;;;5.90;3.67;;;;;;;;;;5043269;28;20055;-76
2022/09/17 14:15:24;;;;;;;5.70;3.78;;;;;;;;;;5042540;28;20471;-76
2022/09/17 14:17:50;;;;;;;5.50;3.30;;;;;;;;;;5044273;28;20024;-77
2022/09/17 14:20:17;;;;;;;5.68;3.58;;;;;;;;;;5026047;28;20060;-76
2022/09/17 14:22:43;;;;;;;7.80;4.28;;;;;;;;;;5045336;28;20067;-77
2022/09/17 14:25:15;;;;;;;5.97;4.10;;;;;;;;;;5038573;28;20096;-76
2022/09/17 14:28:02;;;;;;;6.22;3.60;;;;;;;;;;5043783;28;20277;-76
2022/09/17 14:30:31;;;;;;;5.88;4.03;;;;;;;;;;5044405;28;20021;-75
2022/09/17 14:33:00;;;;;;;5.55;3.33;;;;;;;;;;5041003;28;20052;-74
2022/09/17 14:35:25;;;;;;;4.80;3.67;;;;;;;;;;5068820;28;20025;-75
2022/09/17 14:37:55;;;;;;;7.90;3.73;;;;;;;;;;5067693;28;20092;-75
2022/09/17 14:40:21;;;;;;;7.30;4.03;;;;;;;;;;5063041;28;19997;-76
2022/09/17 14:42:48;;;;;;;6.03;3.67;;;;;;;;;;5064184;28;20039;-75
2022/09/17 14:45:15;;;;;;;6.68;3.67;;;;;;;;;;5047697;28;20036;-76